createdAt,value
2019-04-29T00:01:35.450Z,7.03
2019-04-29T00:04:05.499Z,8.53
2019-04-29T00:06:35.794Z,8.57
2019-04-29T00:09:10.208Z,9.37
2019-04-29T00:11:40.196Z,9.23
2019-04-29T00:14:10.443Z,8.80
2019-04-29T00:16:42.115Z,8.87
2019-04-29T00:19:13.623Z,8.37
2019-04-29T00:21:43.620Z,7.97
2019-04-29T00:24:13.544Z,7.93
2019-04-29T00:26:43.548Z,5.97
2019-04-29T00:29:13.477Z,8.40
2019-04-29T00:31:43.608Z,8.40
2019-04-29T00:34:13.551Z,8.30
2019-04-29T00:36:45.535Z,9.43
2019-04-29T00:39:23.087Z,6.37
2019-04-29T00:42:03.439Z,7.73
2019-04-29T00:44:33.368Z,5.73
2019-04-29T00:47:03.452Z,5.33
2019-04-29T00:49:33.497Z,6.57
2019-04-29T00:52:03.585Z,5.57
2019-04-29T00:54:35.081Z,5.80
2019-04-29T00:57:05.163Z,5.47
2019-04-29T00:59:35.193Z,4.83
2019-04-29T01:02:06.252Z,5.70
2019-04-29T01:04:36.303Z,6.30
2019-04-29T01:07:06.613Z,4.53
2019-04-29T01:09:36.555Z,5.60
2019-04-29T01:12:07.995Z,3.97
2019-04-29T01:14:38.029Z,5.37
2019-04-29T01:17:08.118Z,5.73
2019-04-29T01:19:39.851Z,4.90
2019-04-29T01:22:09.937Z,6.20
2019-04-29T01:24:41.073Z,4.93
2019-04-29T01:27:12.745Z,4.83
2019-04-29T01:29:44.114Z,5.30
2019-04-29T01:32:14.102Z,5.10
2019-04-29T01:34:51.785Z,5.77
2019-04-29T01:37:24.264Z,6.43
2019-04-29T01:40:14.222Z,5.20
2019-04-29T01:42:45.007Z,4.87
2019-04-29T01:45:14.969Z,6.33
2019-04-29T01:47:44.967Z,5.50
2019-04-29T01:50:14.932Z,4.43
2019-04-29T01:52:45.021Z,4.60
2019-04-29T01:55:15.194Z,4.20
2019-04-29T01:57:45.281Z,4.30
2019-04-29T02:00:15.643Z,3.77
2019-04-29T02:02:45.632Z,4.00
2019-04-29T02:05:15.597Z,4.87
2019-04-29T02:07:45.595Z,4.20
2019-04-29T02:10:17.230Z,4.00
2019-04-29T02:12:47.316Z,4.80
2019-04-29T02:15:17.277Z,4.43
2019-04-29T02:17:47.274Z,4.17
2019-04-29T02:20:17.340Z,4.90
2019-04-29T02:22:51.909Z,7.03
2019-04-29T02:25:40.016Z,6.00
2019-04-29T02:28:10.110Z,9.00
2019-04-29T02:30:48.459Z,5.43
2019-04-29T02:33:18.589Z,4.57
2019-04-29T02:35:48.622Z,5.43
2019-04-29T02:38:26.265Z,5.83
2019-04-29T02:40:57.889Z,4.90
2019-04-29T02:43:32.638Z,4.90
2019-04-29T02:46:02.672Z,4.77
2019-04-29T02:48:34.636Z,4.93
2019-04-29T02:51:04.613Z,4.90
2019-04-29T02:53:34.588Z,6.63
2019-04-29T02:56:04.621Z,5.80
2019-04-29T02:58:45.348Z,4.43
2019-04-29T03:01:17.057Z,4.93
2019-04-29T03:03:48.641Z,5.93
2019-04-29T03:06:18.558Z,5.30
2019-04-29T03:08:48.766Z,5.33
2019-04-29T03:11:20.888Z,6.03
2019-04-29T03:13:50.995Z,5.77
2019-04-29T03:16:20.924Z,6.70
2019-04-29T03:18:52.587Z,6.10
2019-04-29T03:21:30.218Z,6.50
2019-04-29T03:24:00.313Z,5.23
2019-04-29T03:26:30.347Z,7.37
2019-04-29T03:29:00.339Z,7.77
2019-04-29T03:31:30.285Z,5.97
2019-04-29T03:34:00.548Z,7.13
2019-04-29T03:36:30.470Z,8.30
2019-04-29T03:39:00.570Z,5.77
2019-04-29T03:41:30.606Z,7.70
2019-04-29T03:44:00.620Z,7.17
2019-04-29T03:46:31.055Z,8.97
2019-04-29T03:49:01.055Z,7.30
2019-04-29T03:51:31.100Z,8.93
2019-04-29T03:54:18.059Z,7.97
2019-04-29T03:56:48.036Z,8.83
2019-04-29T03:59:18.026Z,8.67
2019-04-29T04:01:55.794Z,9.57
2019-04-29T04:04:43.966Z,7.77
2019-04-29T04:07:27.696Z,8.60
2019-04-29T04:09:57.704Z,8.23
2019-04-29T04:12:27.654Z,5.40
2019-04-29T04:14:57.653Z,8.43
2019-04-29T04:17:29.298Z,9.33
2019-04-29T04:19:59.262Z,7.30
2019-04-29T04:22:30.875Z,7.70
2019-04-29T04:25:00.865Z,9.23
2019-04-29T04:27:30.901Z,9.80
2019-04-29T04:30:00.914Z,11.03
2019-04-29T04:32:30.957Z,10.70
2019-04-29T04:35:00.951Z,8.93
2019-04-29T04:37:30.996Z,10.50
2019-04-29T04:40:00.987Z,10.67
2019-04-29T04:42:31.040Z,11.97
2019-04-29T04:45:01.136Z,11.60
2019-04-29T04:47:31.189Z,11.80
2019-04-29T04:50:01.176Z,11.10
2019-04-29T04:52:31.121Z,10.93
2019-04-29T04:55:01.129Z,12.17
2019-04-29T04:57:31.311Z,11.63
2019-04-29T05:00:01.458Z,12.30
2019-04-29T05:02:31.559Z,12.93
2019-04-29T05:05:01.636Z,13.93
2019-04-29T05:07:31.735Z,13.97
2019-04-29T05:10:01.784Z,11.80
2019-04-29T05:12:31.865Z,13.70
2019-04-29T05:15:01.860Z,12.73
2019-04-29T05:17:31.924Z,14.87
2019-04-29T05:20:01.872Z,14.73
2019-04-29T05:22:31.948Z,14.23
2019-04-29T05:25:01.900Z,13.53
2019-04-29T05:27:31.979Z,9.53
2019-04-29T05:30:02.054Z,15.37
2019-04-29T05:32:32.107Z,13.97
2019-04-29T05:35:06.641Z,13.17
2019-04-29T05:37:50.194Z,12.23
2019-04-29T05:40:21.819Z,14.10
2019-04-29T05:42:52.643Z,14.53
2019-04-29T05:45:31.237Z,18.03
2019-04-29T05:48:05.641Z,15.53
2019-04-29T05:50:53.594Z,16.13
2019-04-29T05:53:28.104Z,14.87
2019-04-29T05:55:58.300Z,14.83
2019-04-29T05:58:28.383Z,15.17
2019-04-29T06:01:00.007Z,14.10
2019-04-29T06:03:33.622Z,13.77
2019-04-29T06:06:01.672Z,15.07
2019-04-29T06:08:34.594Z,8.70
2019-04-29T06:11:03.529Z,16.40
2019-04-29T06:13:33.622Z,17.43
2019-04-29T06:16:03.674Z,15.77
2019-04-29T06:18:33.666Z,16.57
2019-04-29T06:21:09.423Z,15.83
2019-04-29T06:23:35.607Z,16.27
2019-04-29T06:26:05.651Z,18.90
2019-04-29T06:28:35.748Z,16.53
2019-04-29T06:31:05.688Z,20.90
2019-04-29T06:33:35.800Z,15.87
2019-04-29T06:36:06.042Z,18.73
2019-04-29T06:38:36.298Z,15.20
2019-04-29T06:41:09.817Z,17.83
2019-04-29T06:43:37.934Z,15.60
2019-04-29T06:46:07.995Z,15.47
2019-04-29T06:48:37.975Z,19.13
2019-04-29T06:51:08.023Z,19.57
2019-04-29T06:53:51.277Z,20.37
2019-04-29T06:56:21.253Z,19.80
2019-04-29T06:58:51.255Z,21.93
2019-04-29T07:01:22.636Z,20.77
2019-04-29T07:03:55.812Z,18.37
2019-04-29T07:06:24.311Z,18.17
2019-04-29T07:08:54.304Z,19.93
2019-04-29T07:11:24.276Z,15.03
2019-04-29T07:13:57.543Z,17.97
2019-04-29T07:16:27.200Z,19.80
2019-04-29T07:18:57.975Z,15.53
2019-04-29T07:21:27.958Z,17.97
2019-04-29T07:23:58.060Z,18.63
2019-04-29T07:26:28.032Z,20.27
2019-04-29T07:28:58.045Z,18.27
2019-04-29T07:31:32.724Z,13.57
2019-04-29T07:33:59.836Z,17.83
2019-04-29T07:36:29.809Z,17.10
2019-04-29T07:38:59.824Z,18.07
2019-04-29T07:41:29.806Z,18.30
2019-04-29T07:43:59.899Z,19.00
2019-04-29T07:46:43.372Z,18.43
2019-04-29T07:49:06.244Z,18.50
2019-04-29T07:51:40.632Z,16.50
2019-04-29T07:54:11.176Z,16.77
2019-04-29T07:56:42.418Z,17.13
2019-04-29T07:59:11.572Z,18.80
2019-04-29T08:01:42.952Z,18.07
2019-04-29T08:04:12.952Z,17.77
2019-04-29T08:06:44.846Z,18.17
2019-04-29T08:09:14.985Z,16.20
2019-04-29T08:11:46.723Z,19.33
2019-04-29T08:14:18.822Z,16.27
2019-04-29T08:16:48.871Z,18.20
2019-04-29T08:19:18.912Z,18.23
2019-04-29T08:21:49.733Z,19.53
2019-04-29T08:24:20.598Z,21.40
2019-04-29T08:26:50.564Z,16.33
2019-04-29T08:29:20.617Z,19.20
2019-04-29T08:31:51.773Z,20.67
2019-04-29T08:34:23.138Z,15.63
2019-04-29T08:36:54.098Z,19.97
2019-04-29T08:39:25.133Z,18.13
2019-04-29T08:41:58.849Z,19.93
2019-04-29T08:44:29.723Z,21.27
2019-04-29T08:47:22.952Z,19.27
2019-04-29T08:49:51.262Z,19.90
2019-04-29T08:52:21.205Z,20.83
2019-04-29T08:54:55.256Z,22.90
2019-04-29T08:57:22.959Z,20.20
2019-04-29T08:59:52.968Z,18.90
2019-04-29T09:02:34.511Z,20.83
2019-04-29T09:04:54.648Z,20.87
2019-04-29T09:07:24.741Z,22.63
2019-04-29T09:09:56.182Z,20.37
2019-04-29T09:12:29.294Z,21.27
2019-04-29T09:14:58.328Z,21.53
2019-04-29T09:17:28.414Z,21.13
2019-04-29T09:19:58.427Z,18.90
2019-04-29T09:22:29.971Z,22.20
2019-04-29T09:25:21.351Z,18.77
2019-04-29T09:27:56.238Z,19.50
2019-04-29T09:30:24.778Z,23.83
2019-04-29T09:32:54.711Z,20.07
2019-04-29T09:35:24.716Z,20.43
2019-04-29T09:37:58.445Z,18.63
2019-04-29T09:40:30.942Z,20.67
2019-04-29T09:43:15.170Z,18.80
2019-04-29T09:45:46.000Z,21.87
2019-04-29T09:48:16.039Z,20.00
2019-04-29T09:50:46.147Z,21.90
2019-04-29T09:53:16.190Z,21.80
2019-04-29T09:55:46.182Z,19.60
2019-04-29T09:58:17.370Z,19.73
2019-04-29T10:00:52.550Z,20.00
2019-04-29T10:03:24.097Z,18.63
2019-04-29T10:06:12.549Z,17.37
2019-04-29T10:08:42.771Z,18.30
2019-04-29T10:11:12.871Z,18.00
2019-04-29T10:13:43.453Z,19.20
2019-04-29T10:16:21.131Z,20.70
2019-04-29T10:18:52.780Z,21.87
2019-04-29T10:21:23.572Z,19.57
2019-04-29T10:23:53.650Z,18.97
2019-04-29T10:26:23.668Z,17.33
2019-04-29T10:29:01.323Z,19.70
2019-04-29T10:31:31.417Z,21.53
2019-04-29T10:34:01.366Z,16.63
2019-04-29T10:36:31.354Z,21.30
2019-04-29T10:39:02.969Z,18.63
2019-04-29T10:41:36.002Z,17.20
2019-04-29T10:44:24.318Z,16.00
2019-04-29T10:46:58.720Z,16.50
2019-04-29T10:49:34.880Z,19.83
2019-04-29T10:52:04.957Z,18.77
2019-04-29T10:54:35.213Z,14.93
2019-04-29T10:57:05.612Z,16.93
2019-04-29T10:59:40.721Z,15.90
2019-04-29T11:02:30.711Z,19.53
2019-04-29T11:05:11.863Z,16.30
2019-04-29T11:07:41.869Z,18.33
2019-04-29T11:10:25.401Z,16.93
2019-04-29T11:12:54.829Z,14.27
2019-04-29T11:15:29.401Z,18.87
2019-04-29T11:17:59.908Z,17.67
2019-04-29T11:20:30.196Z,16.70
2019-04-29T11:23:01.878Z,16.77
2019-04-29T11:25:51.345Z,17.60
2019-04-29T11:28:21.651Z,20.47
2019-04-29T11:30:51.604Z,18.03
2019-04-29T11:33:41.687Z,18.00
2019-04-29T11:36:22.461Z,20.73
2019-04-29T11:38:52.564Z,14.30
2019-04-29T11:41:28.670Z,16.60
2019-04-29T11:43:58.774Z,15.77
2019-04-29T11:46:28.834Z,16.23
2019-04-29T11:49:00.403Z,14.70
2019-04-29T11:51:34.080Z,17.63
2019-04-29T11:54:03.651Z,13.97
2019-04-29T11:56:35.291Z,16.63
2019-04-29T11:59:10.244Z,16.10
2019-04-29T12:01:51.820Z,15.23
2019-04-29T12:04:33.491Z,16.23
2019-04-29T12:07:02.042Z,13.87
2019-04-29T12:09:32.299Z,13.87
2019-04-29T12:12:02.505Z,16.57
2019-04-29T12:14:37.978Z,13.93
2019-04-29T12:17:15.777Z,15.23
2019-04-29T12:19:47.455Z,15.73
2019-04-29T12:22:28.219Z,14.13
2019-04-29T12:24:49.322Z,15.67
2019-04-29T12:27:20.118Z,16.77
2019-04-29T12:29:53.900Z,14.33
2019-04-29T12:32:27.160Z,15.90
2019-04-29T12:34:58.851Z,16.23
2019-04-29T12:37:30.994Z,10.10
2019-04-29T12:40:21.982Z,13.53
2019-04-29T12:43:11.167Z,12.87
2019-04-29T12:45:43.625Z,14.20
2019-04-29T12:48:24.265Z,12.90
2019-04-29T12:50:45.586Z,12.77
2019-04-29T12:53:15.645Z,14.93
2019-04-29T12:55:53.524Z,10.90
2019-04-29T12:58:23.897Z,11.70
2019-04-29T13:00:59.866Z,12.87
2019-04-29T13:03:47.412Z,11.97
2019-04-29T13:06:39.007Z,12.53
2019-04-29T13:09:18.295Z,11.37
2019-04-29T13:11:52.138Z,13.00
2019-04-29T13:14:21.995Z,12.23
2019-04-29T13:16:59.460Z,10.97
2019-04-29T13:19:31.594Z,10.70
2019-04-29T13:22:01.769Z,10.93
2019-04-29T13:24:31.707Z,10.50
2019-04-29T13:27:15.220Z,11.43
2019-04-29T13:29:36.155Z,12.53
2019-04-29T13:32:05.272Z,11.93
2019-04-29T13:34:36.787Z,11.63
2019-04-29T13:37:08.260Z,11.50
2019-04-29T13:39:40.344Z,12.20
2019-04-29T13:42:15.300Z,10.40
2019-04-29T13:44:50.446Z,10.40
2019-04-29T13:47:15.280Z,19.63
2019-04-29T13:49:49.378Z,11.33
2019-04-29T13:52:18.722Z,10.03
2019-04-29T13:54:48.678Z,11.53
2019-04-29T13:57:19.288Z,11.80
2019-04-29T13:59:54.067Z,9.87
2019-04-29T14:02:31.373Z,12.10
2019-04-29T14:05:02.353Z,10.93
2019-04-29T14:07:32.467Z,11.40
2019-04-29T14:10:02.515Z,10.77
2019-04-29T14:12:56.982Z,12.33
2019-04-29T14:15:07.937Z,11.43
2019-04-29T14:17:38.354Z,10.80
2019-04-29T14:20:10.688Z,10.80
2019-04-29T14:22:40.192Z,12.30
2019-04-29T14:25:13.293Z,12.20
2019-04-29T14:27:42.239Z,11.83
2019-04-29T14:30:15.966Z,10.33
2019-04-29T14:32:49.652Z,12.57
2019-04-29T14:35:19.809Z,11.30
2019-04-29T14:37:55.445Z,12.10
2019-04-29T14:40:21.548Z,11.60
2019-04-29T14:42:57.965Z,11.13
2019-04-29T14:45:29.625Z,11.07
2019-04-29T14:48:19.879Z,11.63
2019-04-29T14:50:54.152Z,11.70
2019-04-29T14:53:24.127Z,10.93
2019-04-29T14:55:53.566Z,11.60
2019-04-29T14:58:23.681Z,11.90
2019-04-29T15:00:55.222Z,13.90
2019-04-29T15:03:26.838Z,26.57
2019-04-29T15:05:56.961Z,12.77
2019-04-29T15:08:27.225Z,11.80
2019-04-29T15:10:57.223Z,11.60
2019-04-29T15:13:27.315Z,11.03
2019-04-29T15:16:05.324Z,12.00
2019-04-29T15:18:49.098Z,12.63
2019-04-29T15:21:31.484Z,12.67
2019-04-29T15:23:52.498Z,12.00
2019-04-29T15:26:22.537Z,12.43
2019-04-29T15:28:52.638Z,11.17
2019-04-29T15:31:24.574Z,10.70
2019-04-29T15:33:54.779Z,12.07
2019-04-29T15:36:24.794Z,10.73
2019-04-29T15:39:08.654Z,11.80
2019-04-29T15:41:31.062Z,11.07
2019-04-29T15:44:07.196Z,11.30
2019-04-29T15:46:45.540Z,8.33
2019-04-29T15:49:02.192Z,11.80
2019-04-29T15:51:32.246Z,11.07
2019-04-29T15:54:02.294Z,11.73
2019-04-29T15:56:33.772Z,10.93
2019-04-29T15:59:08.771Z,11.60
2019-04-29T16:01:40.773Z,10.90
2019-04-29T16:04:09.609Z,11.37
2019-04-29T16:06:41.438Z,26.83
2019-04-29T16:09:16.059Z,20.20
2019-04-29T16:11:50.442Z,20.20
2019-04-29T16:14:22.103Z,11.60
2019-04-29T16:16:52.044Z,13.17
2019-04-29T16:19:22.062Z,13.70
2019-04-29T16:21:52.121Z,12.73
2019-04-29T16:24:27.004Z,42.23
2019-04-29T16:26:53.985Z,29.53
2019-04-29T16:29:24.085Z,16.47
2019-04-29T16:31:54.937Z,20.47
2019-04-29T16:34:25.922Z,15.80
2019-04-29T16:36:55.879Z,18.43
2019-04-29T16:39:26.994Z,16.33
2019-04-29T16:42:15.115Z,19.10
2019-04-29T16:44:45.505Z,20.00
2019-04-29T16:50:28.525Z,32.43
2019-04-29T16:54:12.678Z,36.37
2019-04-29T16:56:16.019Z,44.13
2019-04-29T16:58:47.455Z,14.90
2019-04-29T17:01:18.065Z,17.10
2019-04-29T17:03:53.323Z,32.07
2019-04-29T17:06:25.018Z,34.20
2019-04-29T17:09:09.537Z,73.70
2019-04-29T17:11:50.383Z,60.80
2019-04-29T17:14:29.817Z,34.70
2019-04-29T17:17:10.381Z,18.53
2019-04-29T17:19:40.403Z,31.40
2019-04-29T17:22:25.449Z,17.90
2019-04-29T17:24:43.001Z,11.90
2019-04-29T17:27:26.681Z,27.87
2019-04-29T17:30:08.050Z,22.80
2019-04-29T17:32:44.254Z,13.50
2019-04-29T17:35:12.937Z,18.10
2019-04-29T17:37:43.139Z,24.53
2019-04-29T17:40:14.580Z,25.37
2019-04-29T17:42:46.276Z,19.23
2019-04-29T17:45:27.163Z,15.63
2019-04-29T17:47:54.080Z,43.87
2019-04-29T17:50:38.626Z,23.67
2019-04-29T17:53:08.449Z,12.63
2019-04-29T17:55:41.005Z,35.63
2019-04-29T17:58:25.895Z,12.87
2019-04-29T18:00:59.499Z,21.43
2019-04-29T18:03:46.212Z,22.70
2019-04-29T18:06:24.711Z,65.60
2019-04-29T18:08:57.225Z,27.13
2019-04-29T18:11:27.268Z,23.77
2019-04-29T18:13:58.139Z,18.87
2019-04-29T18:16:29.927Z,30.00
2019-04-29T18:19:01.998Z,16.97
2019-04-29T18:21:51.855Z,16.73
2019-04-29T18:24:25.270Z,15.70
2019-04-29T18:26:56.876Z,37.60
2019-04-29T18:29:26.991Z,41.83
2019-04-29T18:32:00.526Z,40.73
2019-04-29T18:34:29.356Z,14.27
2019-04-29T18:37:01.643Z,38.60
2019-04-29T18:39:32.617Z,55.77
2019-04-29T18:42:04.961Z,37.57
2019-04-29T18:44:35.780Z,58.53
2019-04-29T18:47:31.246Z,128.37
2019-04-29T18:50:00.664Z,58.90
2019-04-29T18:52:28.502Z,71.83
2019-04-29T18:55:22.784Z,22.47
2019-04-29T18:58:21.388Z,12.03
2019-04-29T19:01:05.477Z,24.80
2019-04-29T19:03:48.631Z,26.77
2019-04-29T19:06:46.096Z,18.03
2019-04-29T19:09:20.766Z,19.83
2019-04-29T19:11:55.598Z,11.30
2019-04-29T19:14:28.538Z,15.70
2019-04-29T19:17:06.981Z,20.97
2019-04-29T19:19:45.220Z,13.97
2019-04-29T19:22:20.598Z,17.77
2019-04-29T19:24:55.904Z,10.27
2019-04-29T19:27:37.486Z,11.03
2019-04-29T19:30:20.733Z,16.17
2019-04-29T19:32:48.368Z,18.30
2019-04-29T19:35:21.948Z,10.33
2019-04-29T19:37:57.882Z,12.43
2019-04-29T19:40:40.500Z,17.13
2019-04-29T19:43:06.169Z,11.27
2019-04-29T19:45:36.839Z,11.43
2019-04-29T19:48:07.004Z,12.50
2019-04-29T19:50:38.660Z,10.47
2019-04-29T19:53:19.204Z,10.73
2019-04-29T19:56:01.477Z,10.23
2019-04-29T20:01:30.852Z,9.57
2019-04-29T20:04:01.489Z,8.60
2019-04-29T20:06:50.037Z,8.53
2019-04-29T20:09:33.929Z,11.17
2019-04-29T20:12:19.191Z,7.87
2019-04-29T20:19:01.764Z,9.43
2019-04-29T20:21:31.170Z,9.53
2019-04-29T20:24:03.129Z,10.93
2019-04-29T20:26:35.979Z,8.93
2019-04-29T20:29:08.939Z,8.43
2019-04-29T20:32:00.680Z,7.53
2019-04-29T20:34:37.838Z,10.40
2019-04-29T20:37:19.825Z,10.47
2019-04-29T20:39:57.210Z,8.43
2019-04-29T20:42:40.374Z,8.37
2019-04-29T20:45:12.305Z,8.50
2019-04-29T20:47:50.169Z,9.80
2019-04-29T20:50:22.372Z,9.53
2019-04-29T20:53:15.647Z,10.00
2019-04-29T20:55:48.307Z,10.07
2019-04-29T20:58:31.530Z,9.17
2019-04-29T21:01:10.223Z,9.10
2019-04-29T21:03:53.783Z,29.43
2019-04-29T21:06:24.210Z,28.37
2019-04-29T21:09:41.726Z,9.67
2019-04-29T21:11:56.676Z,12.00
2019-04-29T21:14:34.338Z,8.43
2019-04-29T21:17:11.124Z,8.00
2019-04-29T21:19:42.937Z,19.57
2019-04-29T21:26:09.479Z,10.67
2019-04-29T21:28:41.780Z,9.70
2019-04-29T21:31:15.962Z,21.63
2019-04-29T21:33:45.477Z,8.10
2019-04-29T21:36:26.499Z,8.23
2019-04-29T21:39:01.650Z,8.93
2019-04-29T21:41:29.436Z,9.00
2019-04-29T21:44:00.375Z,32.70
2019-04-29T21:46:30.500Z,10.27
2019-04-29T21:49:05.055Z,10.50
2019-04-29T21:51:32.983Z,11.30
2019-04-29T21:54:03.125Z,8.40
2019-04-29T21:56:33.119Z,7.43
2019-04-29T21:59:09.275Z,8.07
2019-04-29T22:01:37.461Z,8.07
2019-04-29T22:04:06.687Z,6.73
2019-04-29T22:06:36.800Z,11.27
2019-04-29T22:09:08.738Z,8.03
2019-04-29T22:11:43.207Z,7.67
2019-04-29T22:14:15.570Z,7.00
2019-04-29T22:16:47.507Z,6.27
2019-04-29T22:19:17.698Z,7.60
2019-04-29T22:21:47.750Z,7.37
2019-04-29T22:24:21.811Z,6.00
2019-04-29T22:26:49.692Z,4.73
2019-04-29T22:29:19.640Z,5.50
2019-04-29T22:31:49.659Z,6.70
2019-04-29T22:34:20.225Z,7.97
2019-04-29T22:36:52.702Z,6.17
2019-04-29T22:39:26.703Z,7.33
2019-04-29T22:42:10.839Z,7.67
2019-04-29T22:44:40.906Z,17.67
2019-04-29T22:47:11.022Z,19.37
2019-04-29T22:49:41.103Z,24.30
2019-04-29T22:52:11.197Z,18.77
2019-04-29T22:54:41.267Z,7.03
2019-04-29T22:57:11.360Z,8.50
2019-04-29T22:59:41.420Z,6.30
2019-04-29T23:02:11.840Z,7.53
2019-04-29T23:04:41.913Z,6.30
2019-04-29T23:07:12.228Z,8.90
2019-04-29T23:09:46.392Z,10.33
2019-04-29T23:12:18.391Z,26.40
2019-04-29T23:14:46.190Z,15.47
2019-04-29T23:17:16.279Z,9.10
2019-04-29T23:19:50.646Z,9.43
2019-04-29T23:22:27.299Z,9.50
2019-04-29T23:24:58.938Z,9.73
2019-04-29T23:27:29.045Z,9.30
2019-04-29T23:29:59.520Z,8.37
2019-04-29T23:32:29.908Z,9.23
2019-04-29T23:35:01.669Z,9.77
2019-04-29T23:37:31.779Z,8.97
2019-04-29T23:40:01.852Z,8.50
2019-04-29T23:42:31.963Z,8.30
2019-04-29T23:45:02.041Z,7.53
2019-04-29T23:47:32.158Z,10.00
2019-04-29T23:50:02.230Z,7.97
2019-04-29T23:52:32.332Z,7.77
2019-04-29T23:55:02.413Z,8.53
2019-04-29T23:57:35.730Z,6.90
